createdAt,value
2023-02-24T00:02:00.916Z,99.80
2023-02-24T00:04:32.343Z,99.80
2023-02-24T00:07:00.933Z,99.80
2023-02-24T00:09:31.278Z,99.80
2023-02-24T00:12:01.469Z,99.80
2023-02-24T00:14:32.018Z,99.80
2023-02-24T00:17:01.727Z,99.80
2023-02-24T00:19:33.976Z,99.70
2023-02-24T00:22:02.816Z,99.70
2023-02-24T00:24:31.746Z,99.70
2023-02-24T00:27:02.282Z,99.60
2023-02-24T00:29:32.462Z,99.60
2023-02-24T00:32:01.623Z,99.60
2023-02-24T00:34:33.699Z,99.60
2023-02-24T00:37:02.299Z,99.60
2023-02-24T00:39:33.442Z,99.60
2023-02-24T00:42:05.725Z,99.60
2023-02-24T00:44:34.844Z,99.50
2023-02-24T00:47:04.937Z,99.50
2023-02-24T00:49:42.045Z,99.40
2023-02-24T00:52:13.688Z,99.40
2023-02-24T00:54:42.342Z,99.40
2023-02-24T00:57:10.669Z,99.30
2023-02-24T00:59:39.582Z,99.30
2023-02-24T01:02:08.316Z,99.30
2023-02-24T01:04:38.629Z,99.30
2023-02-24T01:07:10.993Z,99.30
2023-02-24T01:09:40.643Z,99.20
2023-02-24T01:12:27.650Z,99.20
2023-02-24T01:14:56.251Z,99.20
2023-02-24T01:17:25.521Z,99.10
2023-02-24T01:19:55.171Z,99.10
2023-02-24T01:22:24.004Z,99.10
2023-02-24T01:24:52.429Z,99.00
2023-02-24T01:27:20.654Z,99.10
2023-02-24T01:29:49.504Z,99.10
2023-02-24T01:32:24.213Z,99.10
2023-02-24T01:34:55.020Z,99.10
2023-02-24T01:37:25.266Z,99.10
2023-02-24T01:39:54.523Z,99.10
2023-02-24T01:42:23.973Z,99.10
2023-02-24T01:45:22.012Z,99.10
2023-02-24T01:47:51.694Z,99.10
2023-02-24T01:50:26.164Z,99.10
2023-02-24T01:52:58.802Z,99.10
2023-02-24T01:55:32.076Z,99.10
2023-02-24T01:58:05.656Z,99.10
2023-02-24T02:00:38.267Z,99.10
2023-02-24T02:03:19.550Z,99.10
2023-02-24T02:05:49.618Z,99.00
2023-02-24T02:08:19.659Z,99.10
2023-02-24T02:10:48.096Z,99.10
2023-02-24T02:13:21.525Z,99.10
2023-02-24T02:16:05.996Z,99.00
2023-02-24T02:18:47.456Z,98.80
2023-02-24T02:22:00.004Z,98.70
2023-02-24T02:24:50.558Z,98.70
2023-02-24T02:27:38.831Z,98.70
2023-02-24T02:30:43.948Z,98.70
2023-02-24T02:33:55.090Z,98.70
2023-02-24T02:36:31.275Z,98.60
2023-02-24T02:39:11.969Z,98.50
2023-02-24T02:41:50.771Z,98.50
2023-02-24T02:44:24.967Z,98.50
2023-02-24T02:47:01.222Z,98.50
2023-02-24T02:49:34.011Z,98.40
2023-02-24T02:52:13.842Z,98.40
2023-02-24T02:54:49.702Z,98.30
2023-02-24T02:57:22.494Z,98.30
2023-02-24T02:59:58.880Z,98.60
2023-02-24T03:02:40.119Z,98.20
2023-02-24T03:05:11.311Z,98.10
2023-02-24T03:07:45.417Z,97.90
2023-02-24T03:10:21.168Z,97.90
2023-02-24T03:12:52.877Z,98.00
2023-02-24T03:15:24.484Z,97.90
2023-02-24T03:17:56.343Z,97.90
2023-02-24T03:20:29.358Z,97.80
2023-02-24T03:23:02.500Z,97.80
2023-02-24T03:25:39.568Z,97.80
2023-02-24T03:28:17.508Z,97.80
2023-02-24T03:30:50.692Z,97.70
2023-02-24T03:33:24.231Z,97.70
2023-02-24T03:35:53.671Z,97.70
2023-02-24T03:38:24.444Z,97.60
2023-02-24T03:40:53.520Z,97.60
2023-02-24T03:43:29.886Z,97.60
2023-02-24T03:46:00.699Z,97.50
2023-02-24T03:48:30.708Z,97.50
2023-02-24T03:51:00.585Z,97.40
2023-02-24T03:54:03.821Z,97.40
2023-02-24T03:56:46.226Z,97.30
2023-02-24T03:59:22.065Z,97.30
2023-02-24T04:01:57.932Z,97.30
2023-02-24T04:04:37.727Z,98.50
2023-02-24T04:07:18.754Z,97.30
2023-02-24T04:09:59.579Z,97.30
2023-02-24T04:12:30.720Z,97.20
2023-02-24T04:15:09.070Z,97.30
2023-02-24T04:17:43.031Z,97.40
2023-02-24T04:20:17.268Z,97.30
2023-02-24T04:22:57.137Z,97.30
2023-02-24T04:25:29.108Z,97.30
2023-02-24T04:28:03.137Z,97.30
2023-02-24T04:30:35.415Z,97.30
2023-02-24T04:33:04.746Z,97.30
2023-02-24T04:35:34.185Z,97.40
2023-02-24T04:38:02.708Z,97.40
2023-02-24T04:40:33.392Z,97.40
2023-02-24T04:43:01.847Z,97.40
2023-02-24T04:45:31.952Z,97.40
2023-02-24T04:48:02.161Z,97.40
2023-02-24T04:50:33.474Z,97.40
2023-02-24T04:53:03.903Z,97.30
2023-02-24T04:55:39.183Z,97.30
2023-02-24T04:58:07.905Z,97.30
2023-02-24T05:00:36.331Z,97.30
2023-02-24T05:03:06.044Z,97.20
2023-02-24T05:05:34.363Z,97.20
2023-02-24T05:08:04.715Z,97.20
2023-02-24T05:10:39.466Z,97.20
2023-02-24T05:13:09.554Z,97.20
2023-02-24T05:15:41.981Z,97.20
2023-02-24T05:18:14.855Z,97.20
2023-02-24T05:21:05.933Z,97.20
2023-02-24T05:23:36.314Z,97.10
2023-02-24T05:26:09.073Z,97.10
2023-02-24T05:28:38.403Z,97.00
2023-02-24T05:31:09.654Z,97.00
2023-02-24T05:33:39.626Z,96.90
2023-02-24T05:36:12.151Z,97.00
2023-02-24T05:38:40.921Z,97.00
2023-02-24T05:41:17.025Z,96.90
2023-02-24T05:43:48.114Z,96.80
2023-02-24T05:46:16.794Z,96.80
2023-02-24T05:48:45.134Z,96.70
2023-02-24T05:51:13.629Z,96.70
2023-02-24T05:53:42.439Z,96.70
2023-02-24T05:56:12.522Z,96.70
2023-02-24T05:58:40.784Z,96.70
2023-02-24T06:01:16.350Z,96.70
2023-02-24T06:03:47.945Z,96.70
2023-02-24T06:06:17.056Z,96.70
2023-02-24T06:08:50.327Z,96.70
2023-02-24T06:11:22.104Z,96.70
2023-02-24T06:13:50.668Z,96.70
2023-02-24T06:16:19.852Z,96.70
2023-02-24T06:18:51.019Z,96.70
2023-02-24T06:21:19.549Z,96.60
2023-02-24T06:23:48.024Z,96.60
2023-02-24T06:26:20.043Z,96.60
2023-02-24T06:28:50.049Z,96.70
2023-02-24T06:31:18.692Z,96.70
2023-02-24T06:33:47.063Z,96.60
2023-02-24T06:36:15.493Z,96.70
2023-02-24T06:38:44.346Z,96.60
2023-02-24T06:41:13.343Z,96.60
2023-02-24T06:43:44.009Z,96.60
2023-02-24T06:46:15.532Z,96.60
2023-02-24T06:48:43.802Z,96.60
2023-02-24T06:51:15.612Z,96.60
2023-02-24T06:53:44.886Z,96.60
2023-02-24T06:56:15.905Z,96.70
2023-02-24T06:58:45.265Z,96.60
2023-02-24T07:01:16.234Z,96.70
2023-02-24T07:04:03.426Z,96.70
2023-02-24T07:06:34.483Z,96.80
2023-02-24T07:09:07.124Z,96.80
2023-02-24T07:11:36.468Z,96.90
2023-02-24T07:14:06.554Z,97.00
2023-02-24T07:16:37.069Z,97.00
2023-02-24T07:19:11.293Z,97.00
2023-02-24T07:21:40.536Z,97.10
2023-02-24T07:24:09.784Z,97.20
2023-02-24T07:26:41.936Z,97.30
2023-02-24T07:29:11.719Z,97.30
2023-02-24T07:31:43.127Z,97.50
2023-02-24T07:34:15.090Z,97.50
2023-02-24T07:36:50.261Z,97.30
2023-02-24T07:39:18.942Z,97.00
2023-02-24T07:41:49.933Z,96.80
2023-02-24T07:44:19.322Z,96.90
2023-02-24T07:46:50.017Z,96.80
2023-02-24T07:49:20.686Z,96.70
2023-02-24T07:51:52.713Z,96.80
2023-02-24T07:54:23.212Z,97.10
2023-02-24T07:56:57.725Z,96.80
2023-02-24T07:59:28.270Z,96.80
2023-02-24T08:01:58.103Z,96.80
2023-02-24T08:04:29.237Z,96.90
2023-02-24T08:07:03.074Z,96.90
2023-02-24T08:09:50.384Z,97.20
2023-02-24T08:12:22.529Z,97.00
2023-02-24T08:14:53.356Z,97.10
2023-02-24T08:17:26.470Z,97.50
2023-02-24T08:20:16.449Z,97.50
2023-02-24T08:22:47.040Z,97.60
2023-02-24T08:25:18.839Z,97.70
2023-02-24T08:28:07.001Z,97.70
2023-02-24T08:30:40.074Z,97.80
2023-02-24T08:33:11.710Z,98.00
2023-02-24T08:35:45.106Z,98.00
2023-02-24T08:38:16.293Z,98.10
2023-02-24T08:40:53.348Z,98.20
2023-02-24T08:43:34.441Z,98.40
2023-02-24T08:46:12.606Z,98.30
2023-02-24T08:48:44.997Z,98.30
2023-02-24T08:51:17.935Z,98.30
2023-02-24T08:53:47.283Z,98.20
2023-02-24T08:56:24.364Z,98.20
2023-02-24T08:58:58.138Z,98.30
2023-02-24T09:01:34.695Z,98.20
2023-02-24T09:04:07.271Z,98.20
2023-02-24T09:06:44.191Z,98.30
2023-02-24T09:09:21.100Z,98.30
2023-02-24T09:11:56.111Z,98.40
2023-02-24T09:14:28.809Z,98.50
2023-02-24T09:17:06.966Z,98.70
2023-02-24T09:20:01.981Z,98.80
2023-02-24T09:22:31.644Z,99.00
2023-02-24T09:25:24.039Z,99.10
2023-02-24T09:27:55.649Z,99.10
2023-02-24T09:30:38.103Z,99.10
2023-02-24T09:33:18.146Z,99.30
2023-02-24T09:35:51.050Z,99.20
2023-02-24T09:38:20.851Z,99.40
2023-02-24T09:40:50.432Z,99.50
2023-02-24T09:43:21.880Z,99.60
2023-02-24T09:45:58.651Z,99.60
2023-02-24T09:48:43.824Z,99.70
2023-02-24T09:51:22.743Z,99.90
2023-02-24T09:53:54.432Z,99.90
2023-02-24T09:56:30.711Z,99.90
2023-02-24T09:59:10.379Z,99.90
2023-02-24T10:01:45.192Z,99.90
2023-02-24T10:04:27.433Z,99.90
2023-02-24T10:07:03.752Z,99.90
2023-02-24T10:09:36.777Z,99.90
2023-02-24T10:12:11.733Z,99.90
2023-02-24T10:14:51.228Z,99.90
2023-02-24T10:17:30.649Z,99.90
2023-02-24T10:20:13.735Z,99.90
2023-02-24T10:22:51.483Z,99.90
2023-02-24T10:25:40.838Z,99.90
2023-02-24T10:28:23.108Z,99.90
2023-02-24T10:31:04.083Z,99.90
2023-02-24T10:33:38.809Z,99.90
2023-02-24T10:36:10.028Z,99.90
2023-02-24T10:38:45.357Z,99.90
2023-02-24T10:41:15.838Z,99.90
2023-02-24T10:43:56.031Z,99.90
2023-02-24T10:46:42.787Z,99.90
2023-02-24T10:49:16.501Z,99.90
2023-02-24T10:51:52.413Z,99.90
2023-02-24T10:54:44.947Z,99.90
2023-02-24T10:57:23.189Z,99.90
2023-02-24T11:00:15.438Z,99.90
2023-02-24T11:03:09.308Z,99.90
2023-02-24T11:06:06.716Z,99.90
2023-02-24T11:08:54.656Z,99.90
2023-02-24T11:11:29.912Z,99.90
2023-02-24T11:14:17.958Z,99.90
2023-02-24T11:17:05.923Z,99.90
2023-02-24T11:19:42.495Z,99.90
2023-02-24T11:22:15.362Z,99.90
2023-02-24T11:24:46.159Z,99.90
2023-02-24T11:27:19.490Z,99.90
2023-02-24T11:30:06.193Z,99.90
2023-02-24T11:33:05.213Z,99.90
2023-02-24T11:35:41.861Z,99.90
2023-02-24T11:38:27.864Z,99.90
2023-02-24T11:41:05.222Z,99.90
2023-02-24T11:43:38.619Z,99.80
2023-02-24T11:46:11.319Z,99.80
2023-02-24T11:48:44.152Z,99.70
2023-02-24T11:51:18.092Z,99.60
2023-02-24T11:53:51.067Z,99.50
2023-02-24T11:56:26.239Z,99.60
2023-02-24T11:59:03.433Z,99.50
2023-02-24T12:01:36.588Z,99.50
2023-02-24T12:04:17.831Z,99.50
2023-02-24T12:06:52.119Z,99.60
2023-02-24T12:09:24.370Z,99.60
2023-02-24T12:11:58.328Z,99.60
2023-02-24T12:14:34.692Z,99.60
2023-02-24T12:17:14.089Z,99.60
2023-02-24T12:19:54.621Z,99.70
2023-02-24T12:22:29.769Z,99.70
2023-02-24T12:24:58.455Z,99.80
2023-02-24T12:27:42.471Z,99.80
2023-02-24T12:30:48.769Z,99.80
2023-02-24T12:33:42.395Z,99.90
2023-02-24T12:36:23.770Z,99.90
2023-02-24T12:39:06.958Z,99.90
2023-02-24T12:41:47.695Z,99.90
2023-02-24T12:44:26.969Z,99.90
2023-02-24T12:47:06.045Z,99.90
2023-02-24T12:49:57.281Z,99.90
2023-02-24T12:52:32.280Z,99.90
2023-02-24T12:55:11.280Z,99.90
2023-02-24T12:57:48.411Z,99.90
2023-02-24T13:00:25.791Z,99.90
2023-02-24T13:03:02.057Z,99.90
2023-02-24T13:05:37.480Z,99.90
2023-02-24T13:08:28.664Z,99.90
2023-02-24T13:11:05.528Z,99.90
2023-02-24T13:13:41.358Z,99.90
2023-02-24T13:16:13.348Z,99.90
2023-02-24T13:18:42.983Z,99.90
2023-02-24T13:21:22.680Z,99.90
2023-02-24T13:23:58.279Z,99.90
2023-02-24T13:26:27.594Z,99.90
2023-02-24T13:29:01.944Z,99.90
2023-02-24T13:31:43.080Z,99.90
2023-02-24T13:34:30.750Z,99.90
2023-02-24T13:36:59.443Z,99.90
2023-02-24T13:39:35.629Z,99.90
2023-02-24T13:42:06.987Z,99.90
2023-02-24T13:44:35.353Z,99.90
2023-02-24T13:47:34.314Z,99.90
2023-02-24T13:50:19.893Z,99.90
2023-02-24T13:53:13.235Z,99.90
2023-02-24T13:55:51.273Z,99.90
2023-02-24T13:58:32.016Z,99.90
2023-02-24T14:01:09.782Z,99.90
2023-02-24T14:03:41.059Z,99.90
2023-02-24T14:06:17.537Z,99.90
2023-02-24T14:08:48.640Z,99.90
2023-02-24T14:11:18.607Z,99.90
2023-02-24T14:13:50.732Z,99.90
2023-02-24T14:16:22.804Z,99.90
2023-02-24T14:18:56.154Z,99.90
2023-02-24T14:21:27.852Z,99.90
2023-02-24T14:23:56.688Z,99.90
2023-02-24T14:26:25.244Z,99.90
2023-02-24T14:28:57.977Z,99.90
2023-02-24T14:31:27.023Z,99.90
2023-02-24T14:34:00.148Z,99.90
2023-02-24T14:36:32.972Z,99.90
2023-02-24T14:39:04.858Z,99.90
2023-02-24T14:41:33.071Z,99.90
2023-02-24T14:44:09.971Z,99.90
2023-02-24T14:46:48.708Z,99.90
2023-02-24T14:49:21.364Z,99.90
2023-02-24T14:51:55.767Z,99.90
2023-02-24T14:54:44.495Z,99.90
2023-02-24T14:57:15.699Z,99.90
2023-02-24T14:59:47.675Z,99.90
2023-02-24T15:02:19.816Z,99.90
2023-02-24T15:04:49.345Z,99.90
2023-02-24T15:07:22.262Z,99.90
2023-02-24T15:09:51.894Z,99.90
2023-02-24T15:12:30.127Z,99.90
2023-02-24T15:15:02.184Z,99.90
2023-02-24T15:17:30.711Z,99.90
2023-02-24T15:19:59.033Z,99.90
2023-02-24T15:22:30.453Z,99.90
2023-02-24T15:25:22.409Z,99.90
2023-02-24T15:27:56.715Z,99.90
2023-02-24T15:30:31.213Z,99.90
2023-02-24T15:33:08.728Z,99.90
2023-02-24T15:35:47.225Z,99.90
2023-02-24T15:38:23.921Z,99.90
2023-02-24T15:40:54.232Z,99.90
2023-02-24T15:43:34.052Z,99.90
2023-02-24T15:46:02.536Z,99.90
2023-02-24T15:48:31.640Z,99.90
2023-02-24T15:51:06.208Z,99.90
2023-02-24T15:53:35.838Z,99.90
2023-02-24T15:56:04.054Z,99.90
2023-02-24T15:58:33.116Z,99.90
2023-02-24T16:01:01.622Z,99.90
2023-02-24T16:03:29.884Z,99.90
2023-02-24T16:05:58.266Z,99.90
2023-02-24T16:08:26.531Z,99.90
2023-02-24T16:10:56.149Z,99.90
2023-02-24T16:13:26.544Z,99.90
2023-02-24T16:15:56.383Z,99.90
2023-02-24T16:18:27.150Z,99.90
2023-02-24T16:20:56.688Z,99.90
2023-02-24T16:23:26.835Z,99.90
2023-02-24T16:25:58.315Z,99.90
2023-02-24T16:28:26.936Z,99.90
2023-02-24T16:30:55.436Z,99.90
2023-02-24T16:33:24.209Z,99.90
2023-02-24T16:35:53.856Z,99.90
2023-02-24T16:38:26.592Z,99.90
2023-02-24T16:40:56.491Z,99.90
2023-02-24T16:43:24.747Z,99.90
2023-02-24T16:45:55.210Z,99.90
2023-02-24T16:48:26.143Z,99.90
2023-02-24T16:50:54.706Z,99.90
2023-02-24T16:53:25.403Z,99.90
2023-02-24T16:55:55.089Z,99.90
2023-02-24T16:58:24.770Z,99.90
2023-02-24T17:00:56.525Z,99.90
2023-02-24T17:03:26.200Z,99.90
2023-02-24T17:05:55.126Z,99.90
2023-02-24T17:08:23.525Z,99.90
2023-02-24T17:10:53.001Z,99.90
2023-02-24T17:13:23.151Z,99.90
2023-02-24T17:15:55.167Z,99.90
2023-02-24T17:18:23.811Z,99.90
2023-02-24T17:20:52.531Z,99.90
2023-02-24T17:23:21.305Z,99.90
2023-02-24T17:25:53.683Z,99.90
2023-02-24T17:28:23.564Z,99.90
2023-02-24T17:30:52.299Z,99.90
2023-02-24T17:33:20.983Z,99.90
2023-02-24T17:35:49.519Z,99.90
2023-02-24T17:38:19.032Z,99.90
2023-02-24T17:40:47.742Z,99.90
2023-02-24T17:43:16.364Z,99.90
2023-02-24T17:45:48.006Z,99.90
2023-02-24T17:48:17.181Z,99.90
2023-02-24T17:50:46.741Z,99.90
2023-02-24T17:53:15.467Z,99.90
2023-02-24T17:56:01.077Z,99.90
2023-02-24T17:58:30.729Z,99.90
2023-02-24T18:01:02.036Z,99.90
2023-02-24T18:03:30.516Z,99.90
2023-02-24T18:06:00.597Z,99.90
2023-02-24T18:08:30.465Z,99.90
2023-02-24T18:10:59.160Z,99.90
2023-02-24T18:13:27.698Z,99.90
2023-02-24T18:15:56.316Z,99.90
2023-02-24T18:18:26.555Z,99.90
2023-02-24T18:20:58.640Z,99.90
2023-02-24T18:23:27.018Z,99.90
2023-02-24T18:25:55.281Z,99.90
2023-02-24T18:28:23.563Z,99.90
2023-02-24T18:30:52.113Z,99.90
2023-02-24T18:33:20.783Z,99.90
2023-02-24T18:35:58.406Z,99.90
2023-02-24T18:38:26.823Z,99.90
2023-02-24T18:40:59.580Z,99.90
2023-02-24T18:43:27.909Z,99.90
2023-02-24T18:46:00.558Z,99.90
2023-02-24T18:48:29.670Z,99.90
2023-02-24T18:50:59.829Z,99.90
2023-02-24T18:53:30.578Z,99.90
2023-02-24T18:56:02.852Z,99.90
2023-02-24T18:58:31.675Z,99.90
2023-02-24T19:01:00.311Z,99.90
2023-02-24T19:03:28.524Z,99.90
2023-02-24T19:05:58.140Z,99.90
2023-02-24T19:08:27.028Z,99.90
2023-02-24T19:10:55.312Z,99.90
2023-02-24T19:13:24.286Z,99.90
2023-02-24T19:15:52.673Z,99.90
2023-02-24T19:18:20.925Z,99.90
2023-02-24T19:20:49.502Z,99.90
2023-02-24T19:23:19.148Z,99.90
2023-02-24T19:25:47.484Z,99.90
2023-02-24T19:28:16.620Z,99.90
2023-02-24T19:30:44.994Z,99.90
2023-02-24T19:33:13.229Z,99.90
2023-02-24T19:35:43.241Z,99.90
2023-02-24T19:38:15.936Z,99.90
2023-02-24T19:40:46.438Z,99.90
2023-02-24T19:43:14.773Z,99.90
2023-02-24T19:45:43.201Z,99.90
2023-02-24T19:48:11.960Z,99.90
2023-02-24T19:50:41.226Z,99.90
2023-02-24T19:53:09.993Z,99.90
2023-02-24T19:55:38.369Z,99.90
2023-02-24T19:58:07.977Z,99.90
2023-02-24T20:00:36.244Z,99.90
2023-02-24T20:03:04.493Z,99.90
2023-02-24T20:05:32.813Z,99.90
2023-02-24T20:08:01.032Z,99.90
2023-02-24T20:10:29.267Z,99.90
2023-02-24T20:12:58.081Z,99.90
2023-02-24T20:15:27.629Z,99.90
2023-02-24T20:17:55.990Z,99.90
2023-02-24T20:20:24.581Z,99.90
2023-02-24T20:22:52.809Z,99.90
2023-02-24T20:25:20.998Z,99.90
2023-02-24T20:27:49.332Z,99.90
2023-02-24T20:30:17.862Z,99.90
2023-02-24T20:32:48.255Z,99.90
2023-02-24T20:35:16.701Z,99.90
2023-02-24T20:37:44.956Z,99.90
2023-02-24T20:40:13.863Z,99.90
2023-02-24T20:42:43.436Z,99.90
2023-02-24T20:45:12.590Z,99.90
2023-02-24T20:47:40.828Z,99.90
2023-02-24T20:50:10.996Z,99.90
2023-02-24T20:52:39.944Z,99.90
2023-02-24T20:55:08.994Z,99.90
2023-02-24T20:57:37.379Z,99.90
2023-02-24T21:00:08.033Z,99.90
2023-02-24T21:02:36.757Z,99.90
2023-02-24T21:05:05.200Z,99.90
2023-02-24T21:07:36.900Z,99.90
2023-02-24T21:10:05.320Z,99.90
2023-02-24T21:12:33.579Z,99.90
2023-02-24T21:15:01.954Z,99.90
2023-02-24T21:17:30.763Z,99.90
2023-02-24T21:19:59.009Z,99.90
2023-02-24T21:22:31.166Z,99.90
2023-02-24T21:25:00.812Z,99.90
2023-02-24T21:27:29.038Z,99.90
2023-02-24T21:29:57.295Z,99.90
2023-02-24T21:32:25.607Z,99.90
2023-02-24T21:34:53.847Z,99.90
2023-02-24T21:37:22.073Z,99.90
2023-02-24T21:39:50.253Z,99.90
2023-02-24T21:42:19.972Z,99.90
2023-02-24T21:44:51.052Z,99.90
2023-02-24T21:47:20.454Z,99.90
2023-02-24T21:49:48.934Z,99.90
2023-02-24T21:52:17.207Z,99.90
2023-02-24T21:54:45.586Z,99.90
2023-02-24T21:57:13.904Z,99.90
2023-02-24T21:59:43.649Z,99.90
2023-02-24T22:02:13.985Z,99.90
2023-02-24T22:04:42.306Z,99.90
2023-02-24T22:07:10.542Z,99.90
2023-02-24T22:09:38.971Z,99.90
2023-02-24T22:12:07.547Z,99.90
2023-02-24T22:14:35.758Z,99.90
2023-02-24T22:17:05.424Z,99.90
2023-02-24T22:19:33.661Z,99.90
2023-02-24T22:22:01.868Z,99.90
2023-02-24T22:24:30.155Z,99.90
2023-02-24T22:26:58.660Z,99.90
2023-02-24T22:29:26.918Z,99.90
2023-02-24T22:31:55.311Z,99.90
2023-02-24T22:34:24.946Z,99.90
2023-02-24T22:36:53.584Z,99.90
2023-02-24T22:39:22.726Z,99.90
2023-02-24T22:41:52.502Z,99.90
2023-02-24T22:44:21.200Z,99.90
2023-02-24T22:46:49.907Z,99.90
2023-02-24T22:49:18.460Z,99.90
2023-02-24T22:51:48.162Z,99.90
2023-02-24T22:54:16.500Z,99.80
2023-02-24T22:56:44.760Z,99.90
2023-02-24T22:59:13.442Z,99.90
2023-02-24T23:01:42.951Z,99.90
2023-02-24T23:04:15.506Z,99.90
2023-02-24T23:06:44.566Z,99.90
2023-02-24T23:09:19.602Z,99.90
2023-02-24T23:11:48.223Z,99.90
2023-02-24T23:14:16.992Z,99.90
2023-02-24T23:16:47.253Z,99.90
2023-02-24T23:19:17.656Z,99.90
2023-02-24T23:21:47.893Z,99.90
2023-02-24T23:24:19.607Z,99.80
2023-02-24T23:26:49.563Z,99.60
2023-02-24T23:29:19.283Z,99.50
2023-02-24T23:31:47.845Z,99.60
2023-02-24T23:34:16.650Z,99.60
2023-02-24T23:36:46.801Z,99.50
2023-02-24T23:39:20.511Z,99.40
2023-02-24T23:41:49.456Z,99.40
2023-02-24T23:44:17.611Z,99.40
2023-02-24T23:46:46.647Z,99.40
2023-02-24T23:49:14.922Z,99.30
2023-02-24T23:51:48.595Z,99.40
2023-02-24T23:54:20.385Z,99.20
2023-02-24T23:56:48.964Z,99.10
2023-02-24T23:59:17.234Z,99.00
